sensor_id;sensor_type;location;lat;lon;timestamp;temperature;humidity
52791;DHT22;41253;46.856;-71.574;2022-07-29T00:01:01;20.00;99.90
52791;DHT22;41253;46.856;-71.574;2022-07-29T00:03:28;19.90;99.90
52791;DHT22;41253;46.856;-71.574;2022-07-29T00:05:55;19.90;99.90
52791;DHT22;41253;46.856;-71.574;2022-07-29T00:08:21;19.80;99.90
52791;DHT22;41253;46.856;-71.574;2022-07-29T00:10:48;19.90;99.90
52791;DHT22;41253;46.856;-71.574;2022-07-29T00:13:14;19.90;99.90
52791;DHT22;41253;46.856;-71.574;2022-07-29T00:15:41;19.80;99.90
52791;DHT22;41253;46.856;-71.574;2022-07-29T00:18:07;19.80;99.90
52791;DHT22;41253;46.856;-71.574;2022-07-29T00:20:34;19.80;99.90
52791;DHT22;41253;46.856;-71.574;2022-07-29T00:23:00;19.80;99.90
52791;DHT22;41253;46.856;-71.574;2022-07-29T00:25:27;19.70;99.90
52791;DHT22;41253;46.856;-71.574;2022-07-29T00:27:53;19.70;99.90
52791;DHT22;41253;46.856;-71.574;2022-07-29T00:30:20;19.60;99.90
52791;DHT22;41253;46.856;-71.574;2022-07-29T00:32:46;19.60;99.90
52791;DHT22;41253;46.856;-71.574;2022-07-29T00:35:13;19.70;99.90
52791;DHT22;41253;46.856;-71.574;2022-07-29T00:37:58;19.70;99.90
52791;DHT22;41253;46.856;-71.574;2022-07-29T00:40:26;19.60;99.90
52791;DHT22;41253;46.856;-71.574;2022-07-29T00:42:55;19.50;99.90
52791;DHT22;41253;46.856;-71.574;2022-07-29T00:45:24;19.50;99.90
52791;DHT22;41253;46.856;-71.574;2022-07-29T00:47:51;19.40;99.90
52791;DHT22;41253;46.856;-71.574;2022-07-29T00:50:18;19.40;99.90
52791;DHT22;41253;46.856;-71.574;2022-07-29T00:52:44;19.50;99.90
52791;DHT22;41253;46.856;-71.574;2022-07-29T00:55:13;19.50;99.90
52791;DHT22;41253;46.856;-71.574;2022-07-29T00:57:42;19.50;99.90
52791;DHT22;41253;46.856;-71.574;2022-07-29T01:00:17;19.50;99.90
52791;DHT22;41253;46.856;-71.574;2022-07-29T01:02:44;19.50;99.90
52791;DHT22;41253;46.856;-71.574;2022-07-29T01:05:12;19.40;99.90
52791;DHT22;41253;46.856;-71.574;2022-07-29T01:07:39;19.30;99.90
52791;DHT22;41253;46.856;-71.574;2022-07-29T01:10:08;19.30;99.90
52791;DHT22;41253;46.856;-71.574;2022-07-29T01:12:37;19.30;99.90
52791;DHT22;41253;46.856;-71.574;2022-07-29T01:15:06;19.30;99.90
52791;DHT22;41253;46.856;-71.574;2022-07-29T01:17:41;19.20;99.90
52791;DHT22;41253;46.856;-71.574;2022-07-29T01:31:42;18.80;99.90
52791;DHT22;41253;46.856;-71.574;2022-07-29T01:34:16;18.90;99.90
52791;DHT22;41253;46.856;-71.574;2022-07-29T01:36:55;18.90;99.90
52791;DHT22;41253;46.856;-71.574;2022-07-29T01:39:30;18.80;99.90
52791;DHT22;41253;46.856;-71.574;2022-07-29T01:42:10;18.90;99.90
52791;DHT22;41253;46.856;-71.574;2022-07-29T01:44:50;18.80;99.90
52791;DHT22;41253;46.856;-71.574;2022-07-29T01:47:23;18.80;99.90
52791;DHT22;41253;46.856;-71.574;2022-07-29T01:49:55;18.80;99.90
52791;DHT22;41253;46.856;-71.574;2022-07-29T01:52:38;18.70;99.90
52791;DHT22;41253;46.856;-71.574;2022-07-29T01:55:13;18.60;99.90
52791;DHT22;41253;46.856;-71.574;2022-07-29T01:57:43;18.80;99.90
52791;DHT22;41253;46.856;-71.574;2022-07-29T02:00:11;18.80;99.90
52791;DHT22;41253;46.856;-71.574;2022-07-29T02:02:40;18.80;99.90
52791;DHT22;41253;46.856;-71.574;2022-07-29T02:05:10;18.80;99.90
52791;DHT22;41253;46.856;-71.574;2022-07-29T02:07:40;18.70;99.90
52791;DHT22;41253;46.856;-71.574;2022-07-29T02:10:09;18.80;99.90
52791;DHT22;41253;46.856;-71.574;2022-07-29T02:12:37;18.70;99.90
52791;DHT22;41253;46.856;-71.574;2022-07-29T02:15:06;18.70;99.90
52791;DHT22;41253;46.856;-71.574;2022-07-29T02:17:55;18.80;99.90
52791;DHT22;41253;46.856;-71.574;2022-07-29T02:20:23;18.80;99.90
52791;DHT22;41253;46.856;-71.574;2022-07-29T02:22:52;18.90;99.90
52791;DHT22;41253;46.856;-71.574;2022-07-29T02:25:22;18.90;99.90
52791;DHT22;41253;46.856;-71.574;2022-07-29T02:27:50;18.90;99.90
52791;DHT22;41253;46.856;-71.574;2022-07-29T02:30:18;18.80;99.90
52791;DHT22;41253;46.856;-71.574;2022-07-29T02:32:46;18.80;99.90
52791;DHT22;41253;46.856;-71.574;2022-07-29T02:35:15;18.70;99.90
52791;DHT22;41253;46.856;-71.574;2022-07-29T02:37:44;18.80;99.90
52791;DHT22;41253;46.856;-71.574;2022-07-29T02:40:13;18.80;99.90
52791;DHT22;41253;46.856;-71.574;2022-07-29T02:42:42;18.80;99.90
52791;DHT22;41253;46.856;-71.574;2022-07-29T02:45:10;18.80;99.90
52791;DHT22;41253;46.856;-71.574;2022-07-29T02:47:44;18.90;99.90
52791;DHT22;41253;46.856;-71.574;2022-07-29T02:50:17;19.00;99.90
52791;DHT22;41253;46.856;-71.574;2022-07-29T02:52:49;19.10;99.90
52791;DHT22;41253;46.856;-71.574;2022-07-29T02:55:31;18.90;99.90
52791;DHT22;41253;46.856;-71.574;2022-07-29T02:58:02;19.00;99.90
52791;DHT22;41253;46.856;-71.574;2022-07-29T03:00:31;18.90;99.90
52791;DHT22;41253;46.856;-71.574;2022-07-29T03:03:03;19.00;99.90
52791;DHT22;41253;46.856;-71.574;2022-07-29T03:05:31;19.00;99.90
52791;DHT22;41253;46.856;-71.574;2022-07-29T03:08:01;19.00;99.90
52791;DHT22;41253;46.856;-71.574;2022-07-29T03:10:29;19.00;99.90
52791;DHT22;41253;46.856;-71.574;2022-07-29T03:12:56;19.10;99.90
52791;DHT22;41253;46.856;-71.574;2022-07-29T03:15:24;19.20;99.90
52791;DHT22;41253;46.856;-71.574;2022-07-29T03:17:52;19.20;99.90
52791;DHT22;41253;46.856;-71.574;2022-07-29T03:20:21;19.30;99.90
52791;DHT22;41253;46.856;-71.574;2022-07-29T03:22:48;19.40;99.90
52791;DHT22;41253;46.856;-71.574;2022-07-29T03:25:16;19.50;99.90
52791;DHT22;41253;46.856;-71.574;2022-07-29T03:27:43;19.40;99.90
52791;DHT22;41253;46.856;-71.574;2022-07-29T03:30:11;19.20;99.90
52791;DHT22;41253;46.856;-71.574;2022-07-29T03:32:38;19.10;99.90
52791;DHT22;41253;46.856;-71.574;2022-07-29T03:35:06;19.20;99.90
52791;DHT22;41253;46.856;-71.574;2022-07-29T03:37:32;19.20;99.90
52791;DHT22;41253;46.856;-71.574;2022-07-29T03:40:02;19.20;99.90
52791;DHT22;41253;46.856;-71.574;2022-07-29T03:42:31;19.20;99.90
52791;DHT22;41253;46.856;-71.574;2022-07-29T03:45:05;19.20;99.90
52791;DHT22;41253;46.856;-71.574;2022-07-29T03:47:34;19.30;99.90
52791;DHT22;41253;46.856;-71.574;2022-07-29T03:50:06;19.30;99.90
52791;DHT22;41253;46.856;-71.574;2022-07-29T03:52:33;19.30;99.90
52791;DHT22;41253;46.856;-71.574;2022-07-29T03:54:59;19.40;99.90
52791;DHT22;41253;46.856;-71.574;2022-07-29T03:57:28;19.40;99.90
52791;DHT22;41253;46.856;-71.574;2022-07-29T03:59:56;19.40;99.90
52791;DHT22;41253;46.856;-71.574;2022-07-29T04:02:24;19.40;99.90
52791;DHT22;41253;46.856;-71.574;2022-07-29T04:04:51;19.40;99.90
52791;DHT22;41253;46.856;-71.574;2022-07-29T04:07:18;19.40;99.90
52791;DHT22;41253;46.856;-71.574;2022-07-29T04:09:44;19.30;99.90
52791;DHT22;41253;46.856;-71.574;2022-07-29T04:12:11;19.30;99.90
52791;DHT22;41253;46.856;-71.574;2022-07-29T04:14:37;19.30;99.90
52791;DHT22;41253;46.856;-71.574;2022-07-29T04:17:04;19.30;99.90
52791;DHT22;41253;46.856;-71.574;2022-07-29T04:19:32;19.30;99.90
52791;DHT22;41253;46.856;-71.574;2022-07-29T04:21:59;19.20;99.90
52791;DHT22;41253;46.856;-71.574;2022-07-29T04:24:26;19.20;99.90
52791;DHT22;41253;46.856;-71.574;2022-07-29T04:26:52;19.20;99.90
52791;DHT22;41253;46.856;-71.574;2022-07-29T04:29:19;19.10;99.90
52791;DHT22;41253;46.856;-71.574;2022-07-29T04:31:46;19.10;99.90
52791;DHT22;41253;46.856;-71.574;2022-07-29T04:34:12;19.20;99.90
52791;DHT22;41253;46.856;-71.574;2022-07-29T04:36:39;19.30;99.90
52791;DHT22;41253;46.856;-71.574;2022-07-29T04:39:06;19.20;99.90
52791;DHT22;41253;46.856;-71.574;2022-07-29T04:41:32;19.20;99.90
52791;DHT22;41253;46.856;-71.574;2022-07-29T04:43:59;19.30;99.90
52791;DHT22;41253;46.856;-71.574;2022-07-29T04:46:31;19.20;99.90
52791;DHT22;41253;46.856;-71.574;2022-07-29T04:48:58;19.30;99.90
52791;DHT22;41253;46.856;-71.574;2022-07-29T04:51:24;19.40;99.90
52791;DHT22;41253;46.856;-71.574;2022-07-29T04:53:51;19.40;99.90
52791;DHT22;41253;46.856;-71.574;2022-07-29T04:56:17;19.30;99.90
52791;DHT22;41253;46.856;-71.574;2022-07-29T04:58:43;19.30;99.90
52791;DHT22;41253;46.856;-71.574;2022-07-29T05:01:10;19.40;99.90
52791;DHT22;41253;46.856;-71.574;2022-07-29T05:03:37;19.40;99.90
52791;DHT22;41253;46.856;-71.574;2022-07-29T05:06:03;19.50;99.90
52791;DHT22;41253;46.856;-71.574;2022-07-29T05:08:29;19.50;99.90
52791;DHT22;41253;46.856;-71.574;2022-07-29T05:10:56;19.50;99.90
52791;DHT22;41253;46.856;-71.574;2022-07-29T05:13:22;19.50;99.90
52791;DHT22;41253;46.856;-71.574;2022-07-29T05:15:49;19.50;99.90
52791;DHT22;41253;46.856;-71.574;2022-07-29T05:18:16;19.60;99.90
52791;DHT22;41253;46.856;-71.574;2022-07-29T05:20:42;19.60;99.90
52791;DHT22;41253;46.856;-71.574;2022-07-29T05:23:08;19.60;99.90
52791;DHT22;41253;46.856;-71.574;2022-07-29T05:25:35;19.60;99.90
52791;DHT22;41253;46.856;-71.574;2022-07-29T05:28:01;19.60;99.90
52791;DHT22;41253;46.856;-71.574;2022-07-29T05:30:28;19.70;99.90
52791;DHT22;41253;46.856;-71.574;2022-07-29T05:32:54;19.70;99.90
52791;DHT22;41253;46.856;-71.574;2022-07-29T05:35:21;19.70;99.90
52791;DHT22;41253;46.856;-71.574;2022-07-29T05:37:47;19.70;99.90
52791;DHT22;41253;46.856;-71.574;2022-07-29T05:40:14;19.70;99.90
52791;DHT22;41253;46.856;-71.574;2022-07-29T05:42:40;19.70;99.90
52791;DHT22;41253;46.856;-71.574;2022-07-29T05:45:07;19.70;99.90
52791;DHT22;41253;46.856;-71.574;2022-07-29T05:47:34;19.70;99.90
52791;DHT22;41253;46.856;-71.574;2022-07-29T05:50:01;19.70;99.90
52791;DHT22;41253;46.856;-71.574;2022-07-29T05:52:27;19.70;99.90
52791;DHT22;41253;46.856;-71.574;2022-07-29T05:54:54;19.70;99.90
52791;DHT22;41253;46.856;-71.574;2022-07-29T05:57:23;19.70;99.90
52791;DHT22;41253;46.856;-71.574;2022-07-29T05:59:50;19.70;99.90
52791;DHT22;41253;46.856;-71.574;2022-07-29T06:02:17;19.80;99.90
52791;DHT22;41253;46.856;-71.574;2022-07-29T06:04:43;19.70;99.90
52791;DHT22;41253;46.856;-71.574;2022-07-29T06:07:10;19.80;99.90
52791;DHT22;41253;46.856;-71.574;2022-07-29T06:09:37;19.80;99.90
52791;DHT22;41253;46.856;-71.574;2022-07-29T06:12:03;19.80;99.90
52791;DHT22;41253;46.856;-71.574;2022-07-29T06:14:30;19.80;99.90
52791;DHT22;41253;46.856;-71.574;2022-07-29T06:16:57;19.80;99.90
52791;DHT22;41253;46.856;-71.574;2022-07-29T06:19:24;19.90;99.90
52791;DHT22;41253;46.856;-71.574;2022-07-29T06:21:50;19.90;99.90
52791;DHT22;41253;46.856;-71.574;2022-07-29T06:24:17;20.00;99.90
52791;DHT22;41253;46.856;-71.574;2022-07-29T06:26:44;20.10;99.90
52791;DHT22;41253;46.856;-71.574;2022-07-29T06:29:10;20.10;99.90
52791;DHT22;41253;46.856;-71.574;2022-07-29T06:31:37;20.10;99.90
52791;DHT22;41253;46.856;-71.574;2022-07-29T06:34:04;20.10;99.90
52791;DHT22;41253;46.856;-71.574;2022-07-29T06:36:33;20.10;99.90
52791;DHT22;41253;46.856;-71.574;2022-07-29T06:39:00;20.10;99.90
52791;DHT22;41253;46.856;-71.574;2022-07-29T06:41:26;20.20;99.90
52791;DHT22;41253;46.856;-71.574;2022-07-29T06:43:53;20.20;99.90
52791;DHT22;41253;46.856;-71.574;2022-07-29T06:46:20;20.20;99.90
52791;DHT22;41253;46.856;-71.574;2022-07-29T06:48:47;20.20;99.90
52791;DHT22;41253;46.856;-71.574;2022-07-29T06:51:14;20.30;99.90
52791;DHT22;41253;46.856;-71.574;2022-07-29T06:53:40;20.20;99.90
52791;DHT22;41253;46.856;-71.574;2022-07-29T06:56:07;20.30;99.90
52791;DHT22;41253;46.856;-71.574;2022-07-29T06:58:38;20.30;99.90
52791;DHT22;41253;46.856;-71.574;2022-07-29T07:01:06;20.30;99.90
52791;DHT22;41253;46.856;-71.574;2022-07-29T07:03:33;20.30;99.90
52791;DHT22;41253;46.856;-71.574;2022-07-29T07:06:00;20.30;99.90
52791;DHT22;41253;46.856;-71.574;2022-07-29T07:08:26;20.30;99.90
52791;DHT22;41253;46.856;-71.574;2022-07-29T07:10:53;20.40;99.90
52791;DHT22;41253;46.856;-71.574;2022-07-29T07:13:21;20.50;99.90
52791;DHT22;41253;46.856;-71.574;2022-07-29T07:15:47;20.50;99.90
52791;DHT22;41253;46.856;-71.574;2022-07-29T07:18:15;20.50;99.90
52791;DHT22;41253;46.856;-71.574;2022-07-29T07:20:42;20.50;99.90
52791;DHT22;41253;46.856;-71.574;2022-07-29T07:23:08;20.50;99.90
52791;DHT22;41253;46.856;-71.574;2022-07-29T07:25:35;20.50;99.90
52791;DHT22;41253;46.856;-71.574;2022-07-29T07:28:02;20.60;99.90
52791;DHT22;41253;46.856;-71.574;2022-07-29T07:30:29;25.00;99.90
52791;DHT22;41253;46.856;-71.574;2022-07-29T07:32:55;25.40;99.90
52791;DHT22;41253;46.856;-71.574;2022-07-29T07:35:22;25.50;99.90
52791;DHT22;41253;46.856;-71.574;2022-07-29T07:37:48;25.60;99.90
52791;DHT22;41253;46.856;-71.574;2022-07-29T07:40:15;25.70;99.90
52791;DHT22;41253;46.856;-71.574;2022-07-29T07:42:41;25.70;99.90
52791;DHT22;41253;46.856;-71.574;2022-07-29T07:45:08;25.70;99.90
52791;DHT22;41253;46.856;-71.574;2022-07-29T07:47:36;25.80;99.90
52791;DHT22;41253;46.856;-71.574;2022-07-29T07:50:05;25.60;99.90
52791;DHT22;41253;46.856;-71.574;2022-07-29T07:52:32;25.70;99.90
52791;DHT22;41253;46.856;-71.574;2022-07-29T07:54:59;25.80;99.90
52791;DHT22;41253;46.856;-71.574;2022-07-29T07:57:25;25.90;99.90
52791;DHT22;41253;46.856;-71.574;2022-07-29T07:59:52;25.90;99.90
52791;DHT22;41253;46.856;-71.574;2022-07-29T08:02:18;25.90;99.90
52791;DHT22;41253;46.856;-71.574;2022-07-29T08:04:45;26.00;99.90
52791;DHT22;41253;46.856;-71.574;2022-07-29T08:07:11;26.10;99.90
52791;DHT22;41253;46.856;-71.574;2022-07-29T08:09:40;26.00;99.90
52791;DHT22;41253;46.856;-71.574;2022-07-29T08:12:07;26.10;99.90
52791;DHT22;41253;46.856;-71.574;2022-07-29T08:14:33;26.10;99.90
52791;DHT22;41253;46.856;-71.574;2022-07-29T08:17:00;26.10;99.90
52791;DHT22;41253;46.856;-71.574;2022-07-29T08:19:26;26.10;99.90
52791;DHT22;41253;46.856;-71.574;2022-07-29T08:21:53;26.10;99.90
52791;DHT22;41253;46.856;-71.574;2022-07-29T08:24:20;26.10;99.90
52791;DHT22;41253;46.856;-71.574;2022-07-29T08:27:05;26.00;99.90
52791;DHT22;41253;46.856;-71.574;2022-07-29T08:29:32;26.00;99.90
52791;DHT22;41253;46.856;-71.574;2022-07-29T08:31:58;26.00;99.90
52791;DHT22;41253;46.856;-71.574;2022-07-29T08:34:25;26.00;99.90
52791;DHT22;41253;46.856;-71.574;2022-07-29T08:36:51;26.00;99.90
52791;DHT22;41253;46.856;-71.574;2022-07-29T08:39:18;26.10;99.90
52791;DHT22;41253;46.856;-71.574;2022-07-29T08:41:44;26.10;99.90
52791;DHT22;41253;46.856;-71.574;2022-07-29T08:44:11;26.10;99.90
52791;DHT22;41253;46.856;-71.574;2022-07-29T08:46:38;26.10;99.90
52791;DHT22;41253;46.856;-71.574;2022-07-29T08:49:07;26.00;99.90
52791;DHT22;41253;46.856;-71.574;2022-07-29T08:51:34;26.00;99.90
52791;DHT22;41253;46.856;-71.574;2022-07-29T08:54:03;26.10;99.90
52791;DHT22;41253;46.856;-71.574;2022-07-29T08:56:30;26.10;99.90
52791;DHT22;41253;46.856;-71.574;2022-07-29T08:58:58;26.00;99.90
52791;DHT22;41253;46.856;-71.574;2022-07-29T09:01:27;26.10;99.90
52791;DHT22;41253;46.856;-71.574;2022-07-29T09:03:56;26.10;99.90
52791;DHT22;41253;46.856;-71.574;2022-07-29T09:06:25;26.10;99.90
52791;DHT22;41253;46.856;-71.574;2022-07-29T09:08:58;26.00;99.90
52791;DHT22;41253;46.856;-71.574;2022-07-29T09:11:25;26.00;99.90
52791;DHT22;41253;46.856;-71.574;2022-07-29T09:13:52;25.90;99.90
52791;DHT22;41253;46.856;-71.574;2022-07-29T09:16:19;25.90;99.90
52791;DHT22;41253;46.856;-71.574;2022-07-29T09:18:46;26.00;99.90
52791;DHT22;41253;46.856;-71.574;2022-07-29T09:21:15;26.00;99.90
52791;DHT22;41253;46.856;-71.574;2022-07-29T09:24:13;26.00;99.90
52791;DHT22;41253;46.856;-71.574;2022-07-29T09:26:42;26.00;99.90
52791;DHT22;41253;46.856;-71.574;2022-07-29T09:29:13;26.00;99.90
52791;DHT22;41253;46.856;-71.574;2022-07-29T09:31:42;25.80;99.90
52791;DHT22;41253;46.856;-71.574;2022-07-29T09:34:10;25.80;99.90
52791;DHT22;41253;46.856;-71.574;2022-07-29T09:36:41;25.80;99.90
52791;DHT22;41253;46.856;-71.574;2022-07-29T09:39:08;25.70;99.90
52791;DHT22;41253;46.856;-71.574;2022-07-29T09:41:51;25.70;99.90
52791;DHT22;41253;46.856;-71.574;2022-07-29T09:44:19;25.70;99.90
52791;DHT22;41253;46.856;-71.574;2022-07-29T09:47:00;25.60;99.90
52791;DHT22;41253;46.856;-71.574;2022-07-29T09:49:35;25.70;99.90
52791;DHT22;41253;46.856;-71.574;2022-07-29T09:52:05;25.70;99.90
52791;DHT22;41253;46.856;-71.574;2022-07-29T09:54:32;25.70;99.90
52791;DHT22;41253;46.856;-71.574;2022-07-29T09:57:07;25.80;99.90
52791;DHT22;41253;46.856;-71.574;2022-07-29T09:59:35;25.80;99.90
52791;DHT22;41253;46.856;-71.574;2022-07-29T10:02:01;25.80;99.90
52791;DHT22;41253;46.856;-71.574;2022-07-29T10:04:41;25.80;99.90
52791;DHT22;41253;46.856;-71.574;2022-07-29T10:07:08;25.90;99.90
52791;DHT22;41253;46.856;-71.574;2022-07-29T10:09:36;26.00;99.90
52791;DHT22;41253;46.856;-71.574;2022-07-29T10:12:08;26.10;99.90
52791;DHT22;41253;46.856;-71.574;2022-07-29T10:14:36;26.10;99.90
52791;DHT22;41253;46.856;-71.574;2022-07-29T10:17:04;26.10;99.90
52791;DHT22;41253;46.856;-71.574;2022-07-29T10:19:33;26.10;99.90
52791;DHT22;41253;46.856;-71.574;2022-07-29T10:22:01;26.20;99.90
52791;DHT22;41253;46.856;-71.574;2022-07-29T10:24:29;26.20;99.90
52791;DHT22;41253;46.856;-71.574;2022-07-29T10:26:57;26.30;99.90
52791;DHT22;41253;46.856;-71.574;2022-07-29T10:29:25;26.30;99.90
52791;DHT22;41253;46.856;-71.574;2022-07-29T10:43:31;26.50;99.90
52791;DHT22;41253;46.856;-71.574;2022-07-29T10:46:03;26.50;99.90
52791;DHT22;41253;46.856;-71.574;2022-07-29T10:48:30;26.60;99.90
52791;DHT22;41253;46.856;-71.574;2022-07-29T10:50:57;26.60;99.90
52791;DHT22;41253;46.856;-71.574;2022-07-29T10:53:49;26.70;99.90
52791;DHT22;41253;46.856;-71.574;2022-07-29T10:56:30;26.70;99.90
52791;DHT22;41253;46.856;-71.574;2022-07-29T11:01:44;26.70;99.90
52791;DHT22;41253;46.856;-71.574;2022-07-29T11:04:11;26.80;99.90
52791;DHT22;41253;46.856;-71.574;2022-07-29T11:07:06;26.70;99.90
52791;DHT22;41253;46.856;-71.574;2022-07-29T11:09:33;26.80;99.90
52791;DHT22;41253;46.856;-71.574;2022-07-29T11:12:00;26.70;99.90
52791;DHT22;41253;46.856;-71.574;2022-07-29T11:17:18;26.50;99.90
52791;DHT22;41253;46.856;-71.574;2022-07-29T11:19:45;26.30;99.90
52791;DHT22;41253;46.856;-71.574;2022-07-29T11:22:12;26.10;99.90
52791;DHT22;41253;46.856;-71.574;2022-07-29T11:25:15;25.90;99.90
52791;DHT22;41253;46.856;-71.574;2022-07-29T11:27:46;25.50;99.90
52791;DHT22;41253;46.856;-71.574;2022-07-29T11:30:13;25.20;99.90
52791;DHT22;41253;46.856;-71.574;2022-07-29T11:32:44;24.70;99.90
52791;DHT22;41253;46.856;-71.574;2022-07-29T11:35:21;24.40;99.90
52791;DHT22;41253;46.856;-71.574;2022-07-29T11:41:24;24.00;99.90
52791;DHT22;41253;46.856;-71.574;2022-07-29T11:43:57;23.90;99.90
52791;DHT22;41253;46.856;-71.574;2022-07-29T11:49:22;23.90;99.90
52791;DHT22;41253;46.856;-71.574;2022-07-29T11:51:56;23.80;99.90
52791;DHT22;41253;46.856;-71.574;2022-07-29T11:54:33;24.00;99.90
52791;DHT22;41253;46.856;-71.574;2022-07-29T11:57:00;24.10;99.90
52791;DHT22;41253;46.856;-71.574;2022-07-29T11:59:27;24.00;99.90
52791;DHT22;41253;46.856;-71.574;2022-07-29T12:01:54;23.90;99.90
52791;DHT22;41253;46.856;-71.574;2022-07-29T12:04:21;23.90;99.90
52791;DHT22;41253;46.856;-71.574;2022-07-29T12:06:50;24.20;99.90
52791;DHT22;41253;46.856;-71.574;2022-07-29T12:09:18;24.30;99.90
52791;DHT22;41253;46.856;-71.574;2022-07-29T12:11:46;24.20;99.90
52791;DHT22;41253;46.856;-71.574;2022-07-29T12:14:32;23.90;99.90
52791;DHT22;41253;46.856;-71.574;2022-07-29T12:16:59;23.90;99.90
52791;DHT22;41253;46.856;-71.574;2022-07-29T12:19:27;24.30;99.90
52791;DHT22;41253;46.856;-71.574;2022-07-29T12:21:55;24.70;99.90
52791;DHT22;41253;46.856;-71.574;2022-07-29T12:24:24;24.40;99.90
52791;DHT22;41253;46.856;-71.574;2022-07-29T12:26:58;24.20;99.90
52791;DHT22;41253;46.856;-71.574;2022-07-29T12:29:26;24.80;99.90
52791;DHT22;41253;46.856;-71.574;2022-07-29T12:31:56;24.70;99.90
52791;DHT22;41253;46.856;-71.574;2022-07-29T12:34:24;24.50;99.90
52791;DHT22;41253;46.856;-71.574;2022-07-29T12:36:52;24.30;99.90
52791;DHT22;41253;46.856;-71.574;2022-07-29T12:39:19;25.30;99.90
52791;DHT22;41253;46.856;-71.574;2022-07-29T12:41:46;25.60;99.90
52791;DHT22;41253;46.856;-71.574;2022-07-29T12:44:13;25.40;99.90
52791;DHT22;41253;46.856;-71.574;2022-07-29T12:46:39;25.30;99.90
52791;DHT22;41253;46.856;-71.574;2022-07-29T12:49:05;25.40;99.90
52791;DHT22;41253;46.856;-71.574;2022-07-29T12:51:37;24.90;99.90
52791;DHT22;41253;46.856;-71.574;2022-07-29T12:54:11;24.50;99.90
52791;DHT22;41253;46.856;-71.574;2022-07-29T12:56:41;23.90;99.90
52791;DHT22;41253;46.856;-71.574;2022-07-29T12:59:22;24.50;99.90
52791;DHT22;41253;46.856;-71.574;2022-07-29T13:01:51;25.10;99.90
52791;DHT22;41253;46.856;-71.574;2022-07-29T13:04:44;25.40;99.90
52791;DHT22;41253;46.856;-71.574;2022-07-29T13:07:25;25.10;99.90
52791;DHT22;41253;46.856;-71.574;2022-07-29T13:09:53;24.50;99.90
52791;DHT22;41253;46.856;-71.574;2022-07-29T13:12:20;24.00;99.90
52791;DHT22;41253;46.856;-71.574;2022-07-29T13:14:48;24.80;99.90
52791;DHT22;41253;46.856;-71.574;2022-07-29T13:17:21;25.30;99.90
52791;DHT22;41253;46.856;-71.574;2022-07-29T13:20:06;25.60;99.90
52791;DHT22;41253;46.856;-71.574;2022-07-29T13:22:34;25.50;99.90
52791;DHT22;41253;46.856;-71.574;2022-07-29T13:25:02;24.50;99.90
52791;DHT22;41253;46.856;-71.574;2022-07-29T13:27:31;24.00;99.90
52791;DHT22;41253;46.856;-71.574;2022-07-29T13:30:06;23.50;99.90
52791;DHT22;41253;46.856;-71.574;2022-07-29T13:32:33;24.20;99.90
52791;DHT22;41253;46.856;-71.574;2022-07-29T13:35:06;24.60;99.90
52791;DHT22;41253;46.856;-71.574;2022-07-29T13:37:34;25.20;99.90
52791;DHT22;41253;46.856;-71.574;2022-07-29T13:40:05;24.80;99.90
52791;DHT22;41253;46.856;-71.574;2022-07-29T13:42:32;24.10;99.90
52791;DHT22;41253;46.856;-71.574;2022-07-29T13:44:59;23.40;99.90
52791;DHT22;41253;46.856;-71.574;2022-07-29T13:47:26;23.00;99.90
52791;DHT22;41253;46.856;-71.574;2022-07-29T13:49:53;22.70;99.90
52791;DHT22;41253;46.856;-71.574;2022-07-29T13:52:20;22.90;99.90
52791;DHT22;41253;46.856;-71.574;2022-07-29T13:54:47;22.90;99.90
52791;DHT22;41253;46.856;-71.574;2022-07-29T13:57:14;22.60;99.90
52791;DHT22;41253;46.856;-71.574;2022-07-29T13:59:41;22.70;99.90
52791;DHT22;41253;46.856;-71.574;2022-07-29T14:02:09;22.70;99.90
52791;DHT22;41253;46.856;-71.574;2022-07-29T14:04:36;23.60;99.90
52791;DHT22;41253;46.856;-71.574;2022-07-29T14:07:02;24.10;99.90
52791;DHT22;41253;46.856;-71.574;2022-07-29T14:09:29;24.80;99.90
52791;DHT22;41253;46.856;-71.574;2022-07-29T14:11:56;24.60;99.90
52791;DHT22;41253;46.856;-71.574;2022-07-29T14:14:22;24.70;99.90
52791;DHT22;41253;46.856;-71.574;2022-07-29T14:16:49;25.00;99.90
52791;DHT22;41253;46.856;-71.574;2022-07-29T14:19:15;25.40;99.90
52791;DHT22;41253;46.856;-71.574;2022-07-29T14:21:42;25.60;99.90
52791;DHT22;41253;46.856;-71.574;2022-07-29T14:24:08;25.80;99.90
52791;DHT22;41253;46.856;-71.574;2022-07-29T14:26:34;26.00;99.90
52791;DHT22;41253;46.856;-71.574;2022-07-29T14:29:01;26.10;99.90
52791;DHT22;41253;46.856;-71.574;2022-07-29T14:31:27;25.60;99.90
52791;DHT22;41253;46.856;-71.574;2022-07-29T14:33:54;25.30;99.90
52791;DHT22;41253;46.856;-71.574;2022-07-29T14:36:21;24.70;99.90
52791;DHT22;41253;46.856;-71.574;2022-07-29T14:38:47;24.00;99.90
52791;DHT22;41253;46.856;-71.574;2022-07-29T14:41:14;23.60;99.90
52791;DHT22;41253;46.856;-71.574;2022-07-29T14:43:40;23.50;99.90
52791;DHT22;41253;46.856;-71.574;2022-07-29T14:46:06;24.00;99.90
52791;DHT22;41253;46.856;-71.574;2022-07-29T14:48:33;24.40;99.90
52791;DHT22;41253;46.856;-71.574;2022-07-29T14:51:00;25.20;99.90
52791;DHT22;41253;46.856;-71.574;2022-07-29T14:53:27;25.50;99.90
52791;DHT22;41253;46.856;-71.574;2022-07-29T14:55:53;26.00;99.90
52791;DHT22;41253;46.856;-71.574;2022-07-29T14:58:20;26.00;99.90
52791;DHT22;41253;46.856;-71.574;2022-07-29T15:00:48;26.10;99.90
52791;DHT22;41253;46.856;-71.574;2022-07-29T15:03:14;26.60;99.90
52791;DHT22;41253;46.856;-71.574;2022-07-29T15:05:41;26.70;99.90
52791;DHT22;41253;46.856;-71.574;2022-07-29T15:08:08;26.70;99.90
52791;DHT22;41253;46.856;-71.574;2022-07-29T15:10:34;26.30;99.90
52791;DHT22;41253;46.856;-71.574;2022-07-29T15:13:01;25.40;99.90
52791;DHT22;41253;46.856;-71.574;2022-07-29T15:15:27;25.80;99.90
52791;DHT22;41253;46.856;-71.574;2022-07-29T15:17:54;26.20;99.90
52791;DHT22;41253;46.856;-71.574;2022-07-29T15:20:20;25.70;99.90
52791;DHT22;41253;46.856;-71.574;2022-07-29T15:22:47;25.60;99.90
52791;DHT22;41253;46.856;-71.574;2022-07-29T15:25:13;25.20;99.90
52791;DHT22;41253;46.856;-71.574;2022-07-29T15:27:40;24.30;99.90
52791;DHT22;41253;46.856;-71.574;2022-07-29T15:30:07;24.10;99.90
52791;DHT22;41253;46.856;-71.574;2022-07-29T15:32:34;24.20;99.90
52791;DHT22;41253;46.856;-71.574;2022-07-29T15:35:00;24.40;99.90
52791;DHT22;41253;46.856;-71.574;2022-07-29T15:37:26;24.10;99.90
52791;DHT22;41253;46.856;-71.574;2022-07-29T15:39:54;23.60;99.90
52791;DHT22;41253;46.856;-71.574;2022-07-29T15:42:21;23.50;99.90
52791;DHT22;41253;46.856;-71.574;2022-07-29T15:44:47;23.20;99.90
52791;DHT22;41253;46.856;-71.574;2022-07-29T15:47:13;22.80;99.90